sensor_id;sensor_type;location;lat;lon;timestamp;temperature;humidity
11454;DHT22;5783;55.174;61.310;2024-03-07T00:00:45;28.40;15.70
11454;DHT22;5783;55.174;61.310;2024-03-07T00:03:13;28.40;15.70
11454;DHT22;5783;55.174;61.310;2024-03-07T00:05:43;28.40;15.60
11454;DHT22;5783;55.174;61.310;2024-03-07T00:08:11;28.30;15.60
11454;DHT22;5783;55.174;61.310;2024-03-07T00:10:39;28.40;15.70
11454;DHT22;5783;55.174;61.310;2024-03-07T00:13:09;28.40;15.60
11454;DHT22;5783;55.174;61.310;2024-03-07T00:15:39;28.40;15.60
11454;DHT22;5783;55.174;61.310;2024-03-07T00:18:07;28.40;15.60
11454;DHT22;5783;55.174;61.310;2024-03-07T00:20:36;28.40;15.70
11454;DHT22;5783;55.174;61.310;2024-03-07T00:23:04;28.40;15.50
11454;DHT22;5783;55.174;61.310;2024-03-07T00:25:32;28.50;15.60
11454;DHT22;5783;55.174;61.310;2024-03-07T00:28:00;28.40;15.50
11454;DHT22;5783;55.174;61.310;2024-03-07T00:30:29;28.50;15.50
11454;DHT22;5783;55.174;61.310;2024-03-07T00:32:59;28.50;15.50
11454;DHT22;5783;55.174;61.310;2024-03-07T00:35:27;28.50;15.50
11454;DHT22;5783;55.174;61.310;2024-03-07T00:37:55;28.50;15.40
11454;DHT22;5783;55.174;61.310;2024-03-07T00:40:24;28.70;16.30
11454;DHT22;5783;55.174;61.310;2024-03-07T00:42:52;28.60;16.80
11454;DHT22;5783;55.174;61.310;2024-03-07T00:45:20;28.50;15.50
11454;DHT22;5783;55.174;61.310;2024-03-07T00:47:48;28.50;15.50
11454;DHT22;5783;55.174;61.310;2024-03-07T00:50:16;28.50;15.40
11454;DHT22;5783;55.174;61.310;2024-03-07T00:52:45;28.50;15.50
11454;DHT22;5783;55.174;61.310;2024-03-07T00:55:14;28.50;15.40
11454;DHT22;5783;55.174;61.310;2024-03-07T00:57:42;28.50;15.50
11454;DHT22;5783;55.174;61.310;2024-03-07T01:00:11;28.50;15.40
11454;DHT22;5783;55.174;61.310;2024-03-07T01:02:40;28.40;15.40
11454;DHT22;5783;55.174;61.310;2024-03-07T01:05:10;28.40;15.40
11454;DHT22;5783;55.174;61.310;2024-03-07T01:07:58;28.40;15.40
11454;DHT22;5783;55.174;61.310;2024-03-07T01:10:26;28.40;16.00
11454;DHT22;5783;55.174;61.310;2024-03-07T01:12:54;28.40;15.40
11454;DHT22;5783;55.174;61.310;2024-03-07T01:15:24;28.40;16.30
11454;DHT22;5783;55.174;61.310;2024-03-07T01:17:52;28.40;15.40
11454;DHT22;5783;55.174;61.310;2024-03-07T01:20:20;28.50;15.70
11454;DHT22;5783;55.174;61.310;2024-03-07T01:22:51;28.50;15.90
11454;DHT22;5783;55.174;61.310;2024-03-07T01:25:19;28.50;16.50
11454;DHT22;5783;55.174;61.310;2024-03-07T01:27:47;28.50;15.30
11454;DHT22;5783;55.174;61.310;2024-03-07T01:30:17;28.50;15.40
11454;DHT22;5783;55.174;61.310;2024-03-07T01:32:45;28.50;15.40
11454;DHT22;5783;55.174;61.310;2024-03-07T01:35:13;28.50;15.40
11454;DHT22;5783;55.174;61.310;2024-03-07T01:37:41;28.50;15.40
11454;DHT22;5783;55.174;61.310;2024-03-07T01:40:09;28.40;15.40
11454;DHT22;5783;55.174;61.310;2024-03-07T01:42:38;28.40;15.40
11454;DHT22;5783;55.174;61.310;2024-03-07T01:45:06;28.40;15.40
11454;DHT22;5783;55.174;61.310;2024-03-07T01:47:35;28.40;15.60
11454;DHT22;5783;55.174;61.310;2024-03-07T01:50:04;28.40;15.50
11454;DHT22;5783;55.174;61.310;2024-03-07T01:52:32;28.40;15.50
11454;DHT22;5783;55.174;61.310;2024-03-07T01:55:01;28.40;15.50
11454;DHT22;5783;55.174;61.310;2024-03-07T01:57:29;28.30;15.50
11454;DHT22;5783;55.174;61.310;2024-03-07T01:59:57;28.40;15.50
11454;DHT22;5783;55.174;61.310;2024-03-07T02:02:26;28.40;15.50
11454;DHT22;5783;55.174;61.310;2024-03-07T02:04:54;28.40;15.00
11454;DHT22;5783;55.174;61.310;2024-03-07T02:07:22;28.40;15.40
11454;DHT22;5783;55.174;61.310;2024-03-07T02:09:58;28.40;15.40
11454;DHT22;5783;55.174;61.310;2024-03-07T02:15:08;28.50;15.40
11454;DHT22;5783;55.174;61.310;2024-03-07T02:17:36;28.50;15.30
11454;DHT22;5783;55.174;61.310;2024-03-07T02:20:05;28.50;15.30
11454;DHT22;5783;55.174;61.310;2024-03-07T02:22:35;28.50;16.70
11454;DHT22;5783;55.174;61.310;2024-03-07T02:25:03;28.50;15.30
11454;DHT22;5783;55.174;61.310;2024-03-07T02:27:32;28.50;15.30
11454;DHT22;5783;55.174;61.310;2024-03-07T02:30:00;28.50;15.30
11454;DHT22;5783;55.174;61.310;2024-03-07T02:32:28;28.40;15.20
11454;DHT22;5783;55.174;61.310;2024-03-07T02:34:56;28.40;15.30
11454;DHT22;5783;55.174;61.310;2024-03-07T02:37:25;28.30;15.30
11454;DHT22;5783;55.174;61.310;2024-03-07T02:39:53;28.40;15.30
11454;DHT22;5783;55.174;61.310;2024-03-07T02:42:21;28.40;15.30
11454;DHT22;5783;55.174;61.310;2024-03-07T02:44:49;28.40;15.30
11454;DHT22;5783;55.174;61.310;2024-03-07T02:47:18;28.30;15.30
11454;DHT22;5783;55.174;61.310;2024-03-07T02:49:48;28.40;14.90
11454;DHT22;5783;55.174;61.310;2024-03-07T02:52:16;28.40;15.30
11454;DHT22;5783;55.174;61.310;2024-03-07T02:54:44;28.40;15.30
11454;DHT22;5783;55.174;61.310;2024-03-07T02:57:13;28.40;15.20
11454;DHT22;5783;55.174;61.310;2024-03-07T02:59:41;28.50;15.30
11454;DHT22;5783;55.174;61.310;2024-03-07T03:02:10;28.50;15.30
11454;DHT22;5783;55.174;61.310;2024-03-07T03:04:38;28.50;15.30
11454;DHT22;5783;55.174;61.310;2024-03-07T03:07:06;28.50;15.20
11454;DHT22;5783;55.174;61.310;2024-03-07T03:09:34;28.50;15.20
11454;DHT22;5783;55.174;61.310;2024-03-07T03:12:04;28.50;15.20
11454;DHT22;5783;55.174;61.310;2024-03-07T03:14:32;28.40;15.20
11454;DHT22;5783;55.174;61.310;2024-03-07T03:17:00;28.50;15.20
11454;DHT22;5783;55.174;61.310;2024-03-07T03:19:28;28.50;15.20
11454;DHT22;5783;55.174;61.310;2024-03-07T03:21:57;28.40;15.20
11454;DHT22;5783;55.174;61.310;2024-03-07T03:24:25;28.40;15.20
11454;DHT22;5783;55.174;61.310;2024-03-07T03:26:53;28.40;15.20
11454;DHT22;5783;55.174;61.310;2024-03-07T03:29:21;28.40;15.30
11454;DHT22;5783;55.174;61.310;2024-03-07T03:31:49;28.30;15.30
11454;DHT22;5783;55.174;61.310;2024-03-07T03:34:17;28.30;15.30
11454;DHT22;5783;55.174;61.310;2024-03-07T03:36:45;28.30;15.30
11454;DHT22;5783;55.174;61.310;2024-03-07T03:39:14;28.30;15.30
11454;DHT22;5783;55.174;61.310;2024-03-07T03:41:42;28.30;15.30
11454;DHT22;5783;55.174;61.310;2024-03-07T03:44:10;28.40;15.40
11454;DHT22;5783;55.174;61.310;2024-03-07T03:46:38;28.40;15.40
11454;DHT22;5783;55.174;61.310;2024-03-07T03:49:06;28.40;15.30
11454;DHT22;5783;55.174;61.310;2024-03-07T03:51:34;28.40;15.40
11454;DHT22;5783;55.174;61.310;2024-03-07T03:54:02;28.40;15.30
11454;DHT22;5783;55.174;61.310;2024-03-07T03:56:32;28.40;15.30
11454;DHT22;5783;55.174;61.310;2024-03-07T03:59:02;28.40;15.30
11454;DHT22;5783;55.174;61.310;2024-03-07T04:01:30;28.40;15.30
11454;DHT22;5783;55.174;61.310;2024-03-07T04:03:58;28.40;15.30
11454;DHT22;5783;55.174;61.310;2024-03-07T04:06:26;28.40;15.70
11454;DHT22;5783;55.174;61.310;2024-03-07T04:08:54;28.40;15.90
11454;DHT22;5783;55.174;61.310;2024-03-07T04:11:23;28.50;15.90
11454;DHT22;5783;55.174;61.310;2024-03-07T04:13:51;28.50;16.90
11454;DHT22;5783;55.174;61.310;2024-03-07T04:18:48;27.90;30.80
11454;DHT22;5783;55.174;61.310;2024-03-07T04:21:17;28.70;21.70
11454;DHT22;5783;55.174;61.310;2024-03-07T04:23:45;28.70;15.50
11454;DHT22;5783;55.174;61.310;2024-03-07T04:26:13;28.80;18.50
11454;DHT22;5783;55.174;61.310;2024-03-07T04:28:42;28.90;16.20
11454;DHT22;5783;55.174;61.310;2024-03-07T04:31:11;28.90;15.80
11454;DHT22;5783;55.174;61.310;2024-03-07T04:33:39;29.00;15.80
11454;DHT22;5783;55.174;61.310;2024-03-07T04:36:07;28.90;16.20
11454;DHT22;5783;55.174;61.310;2024-03-07T04:38:36;28.90;16.30
11454;DHT22;5783;55.174;61.310;2024-03-07T04:41:04;28.90;14.80
11454;DHT22;5783;55.174;61.310;2024-03-07T04:43:32;29.00;14.50
11454;DHT22;5783;55.174;61.310;2024-03-07T04:46:00;28.90;14.50
11454;DHT22;5783;55.174;61.310;2024-03-07T04:48:28;28.90;14.60
11454;DHT22;5783;55.174;61.310;2024-03-07T04:50:56;28.90;15.30
11454;DHT22;5783;55.174;61.310;2024-03-07T04:53:24;29.00;14.20
11454;DHT22;5783;55.174;61.310;2024-03-07T04:55:53;29.00;14.10
11454;DHT22;5783;55.174;61.310;2024-03-07T04:58:22;29.00;14.00
11454;DHT22;5783;55.174;61.310;2024-03-07T05:00:50;29.00;13.90
11454;DHT22;5783;55.174;61.310;2024-03-07T05:03:18;29.00;13.80
11454;DHT22;5783;55.174;61.310;2024-03-07T05:05:46;28.90;14.10
11454;DHT22;5783;55.174;61.310;2024-03-07T05:08:14;28.90;13.40
11454;DHT22;5783;55.174;61.310;2024-03-07T05:10:43;28.90;13.60
11454;DHT22;5783;55.174;61.310;2024-03-07T05:13:11;28.90;13.40
11454;DHT22;5783;55.174;61.310;2024-03-07T05:15:39;28.90;13.40
11454;DHT22;5783;55.174;61.310;2024-03-07T05:18:07;28.80;13.20
11454;DHT22;5783;55.174;61.310;2024-03-07T05:20:35;28.90;13.50
11454;DHT22;5783;55.174;61.310;2024-03-07T05:23:04;28.80;13.30
11454;DHT22;5783;55.174;61.310;2024-03-07T05:25:32;28.80;13.10
11454;DHT22;5783;55.174;61.310;2024-03-07T05:28:01;28.80;13.00
11454;DHT22;5783;55.174;61.310;2024-03-07T05:30:30;28.70;13.20
11454;DHT22;5783;55.174;61.310;2024-03-07T05:32:59;28.70;13.00
11454;DHT22;5783;55.174;61.310;2024-03-07T05:35:27;28.60;13.00
11454;DHT22;5783;55.174;61.310;2024-03-07T05:37:55;28.80;13.20
11454;DHT22;5783;55.174;61.310;2024-03-07T05:40:25;28.60;13.00
11454;DHT22;5783;55.174;61.310;2024-03-07T05:42:53;28.60;12.90
11454;DHT22;5783;55.174;61.310;2024-03-07T05:47:50;28.40;12.40
11454;DHT22;5783;55.174;61.310;2024-03-07T05:50:18;28.50;13.00
11454;DHT22;5783;55.174;61.310;2024-03-07T05:52:46;28.50;12.60
11454;DHT22;5783;55.174;61.310;2024-03-07T05:55:14;28.50;12.50
11454;DHT22;5783;55.174;61.310;2024-03-07T05:57:44;28.40;12.00
11454;DHT22;5783;55.174;61.310;2024-03-07T06:00:14;28.50;12.60
11454;DHT22;5783;55.174;61.310;2024-03-07T06:02:45;28.50;12.10
11454;DHT22;5783;55.174;61.310;2024-03-07T06:05:15;28.50;12.00
11454;DHT22;5783;55.174;61.310;2024-03-07T06:07:44;28.50;12.50
11454;DHT22;5783;55.174;61.310;2024-03-07T06:10:13;28.50;12.50
11454;DHT22;5783;55.174;61.310;2024-03-07T06:12:42;28.50;12.40
11454;DHT22;5783;55.174;61.310;2024-03-07T06:15:12;28.50;12.40
11454;DHT22;5783;55.174;61.310;2024-03-07T06:17:40;28.50;12.60
11454;DHT22;5783;55.174;61.310;2024-03-07T06:20:10;28.50;12.40
11454;DHT22;5783;55.174;61.310;2024-03-07T06:22:40;28.50;12.40
11454;DHT22;5783;55.174;61.310;2024-03-07T06:27:19;28.10;20.60
11454;DHT22;5783;55.174;61.310;2024-03-07T06:30:07;28.10;37.70
11454;DHT22;5783;55.174;61.310;2024-03-07T06:35:03;27.60;41.00
11454;DHT22;5783;55.174;61.310;2024-03-07T06:37:31;28.30;42.70
11454;DHT22;5783;55.174;61.310;2024-03-07T06:40:00;28.20;39.40
11454;DHT22;5783;55.174;61.310;2024-03-07T06:42:49;27.40;40.40
11454;DHT22;5783;55.174;61.310;2024-03-07T06:45:18;28.70;40.00
11454;DHT22;5783;55.174;61.310;2024-03-07T06:47:47;28.60;43.80
11454;DHT22;5783;55.174;61.310;2024-03-07T06:50:15;27.70;34.90
11454;DHT22;5783;55.174;61.310;2024-03-07T06:52:46;28.60;34.60
11454;DHT22;5783;55.174;61.310;2024-03-07T06:58:04;27.50;22.80
11454;DHT22;5783;55.174;61.310;2024-03-07T07:03:19;28.00;12.10
11454;DHT22;5783;55.174;61.310;2024-03-07T07:05:48;28.10;12.10
11454;DHT22;5783;55.174;61.310;2024-03-07T07:08:16;28.00;11.90
11454;DHT22;5783;55.174;61.310;2024-03-07T07:10:45;27.90;11.80
11454;DHT22;5783;55.174;61.310;2024-03-07T07:13:14;27.60;55.40
11454;DHT22;5783;55.174;61.310;2024-03-07T07:15:43;27.80;17.90
11454;DHT22;5783;55.174;61.310;2024-03-07T07:18:13;27.70;19.60
11454;DHT22;5783;55.174;61.310;2024-03-07T07:20:42;27.80;54.50
11454;DHT22;5783;55.174;61.310;2024-03-07T07:23:11;27.70;42.40
11454;DHT22;5783;55.174;61.310;2024-03-07T07:25:39;27.40;52.50
11454;DHT22;5783;55.174;61.310;2024-03-07T07:28:08;27.80;17.40
11454;DHT22;5783;55.174;61.310;2024-03-07T07:30:37;27.90;16.60
11454;DHT22;5783;55.174;61.310;2024-03-07T07:33:05;27.90;16.90
11454;DHT22;5783;55.174;61.310;2024-03-07T07:35:34;27.90;11.90
11454;DHT22;5783;55.174;61.310;2024-03-07T07:38:03;27.90;17.10
11454;DHT22;5783;55.174;61.310;2024-03-07T07:40:33;28.30;12.40
11454;DHT22;5783;55.174;61.310;2024-03-07T07:43:03;27.60;15.50
11454;DHT22;5783;55.174;61.310;2024-03-07T07:45:32;27.20;54.00
11454;DHT22;5783;55.174;61.310;2024-03-07T07:48:02;27.40;12.20
11454;DHT22;5783;55.174;61.310;2024-03-07T07:50:31;27.30;22.80
11454;DHT22;5783;55.174;61.310;2024-03-07T07:53:01;27.20;54.80
11454;DHT22;5783;55.174;61.310;2024-03-07T07:55:31;27.10;26.00
11454;DHT22;5783;55.174;61.310;2024-03-07T07:58:01;27.10;29.70
11454;DHT22;5783;55.174;61.310;2024-03-07T08:00:31;27.00;15.00
11454;DHT22;5783;55.174;61.310;2024-03-07T08:05:52;26.90;39.60
11454;DHT22;5783;55.174;61.310;2024-03-07T08:10:50;26.90;24.70
11454;DHT22;5783;55.174;61.310;2024-03-07T08:13:19;26.90;32.60
11454;DHT22;5783;55.174;61.310;2024-03-07T08:15:48;27.00;34.10
11454;DHT22;5783;55.174;61.310;2024-03-07T08:26:24;27.10;33.10
11454;DHT22;5783;55.174;61.310;2024-03-07T08:33:52;27.30;25.80
11454;DHT22;5783;55.174;61.310;2024-03-07T08:36:21;27.30;20.20
11454;DHT22;5783;55.174;61.310;2024-03-07T08:38:51;27.20;28.80
11454;DHT22;5783;55.174;61.310;2024-03-07T08:41:20;25.50;17.70
11454;DHT22;5783;55.174;61.310;2024-03-07T08:43:49;27.20;57.20
11454;DHT22;5783;55.174;61.310;2024-03-07T08:46:18;27.10;22.40
11454;DHT22;5783;55.174;61.310;2024-03-07T08:54:05;27.00;23.10
11454;DHT22;5783;55.174;61.310;2024-03-07T08:59:02;27.20;43.60
11454;DHT22;5783;55.174;61.310;2024-03-07T09:01:31;27.30;42.40
11454;DHT22;5783;55.174;61.310;2024-03-07T09:04:01;26.90;16.90
11454;DHT22;5783;55.174;61.310;2024-03-07T09:06:30;27.00;45.60
11454;DHT22;5783;55.174;61.310;2024-03-07T09:09:01;26.90;47.90
11454;DHT22;5783;55.174;61.310;2024-03-07T09:11:30;27.10;19.20
11454;DHT22;5783;55.174;61.310;2024-03-07T09:13:59;27.10;16.50
11454;DHT22;5783;55.174;61.310;2024-03-07T09:18:57;27.10;16.10
11454;DHT22;5783;55.174;61.310;2024-03-07T09:21:26;26.80;48.10
11454;DHT22;5783;55.174;61.310;2024-03-07T09:24:34;27.20;16.60
11454;DHT22;5783;55.174;61.310;2024-03-07T09:27:04;27.20;16.90
11454;DHT22;5783;55.174;61.310;2024-03-07T09:29:34;27.00;52.20
11454;DHT22;5783;55.174;61.310;2024-03-07T09:32:04;27.20;53.30
11454;DHT22;5783;55.174;61.310;2024-03-07T09:34:35;27.10;18.30
11454;DHT22;5783;55.174;61.310;2024-03-07T09:37:04;27.10;18.60
11454;DHT22;5783;55.174;61.310;2024-03-07T09:39:53;27.00;22.30
11454;DHT22;5783;55.174;61.310;2024-03-07T09:42:24;26.90;28.10
11454;DHT22;5783;55.174;61.310;2024-03-07T09:44:55;26.90;18.80
11454;DHT22;5783;55.174;61.310;2024-03-07T09:49:57;26.70;19.70
11454;DHT22;5783;55.174;61.310;2024-03-07T09:52:27;26.80;15.80
11454;DHT22;5783;55.174;61.310;2024-03-07T09:54:58;26.80;16.50
11454;DHT22;5783;55.174;61.310;2024-03-07T09:57:27;26.50;45.70
11454;DHT22;5783;55.174;61.310;2024-03-07T09:59:59;26.90;16.60
11454;DHT22;5783;55.174;61.310;2024-03-07T10:02:31;27.00;16.00
11454;DHT22;5783;55.174;61.310;2024-03-07T10:05:01;26.70;45.10
11454;DHT22;5783;55.174;61.310;2024-03-07T10:07:31;27.00;16.20
11454;DHT22;5783;55.174;61.310;2024-03-07T10:10:01;27.30;45.10
11454;DHT22;5783;55.174;61.310;2024-03-07T10:12:32;26.80;29.90
11454;DHT22;5783;55.174;61.310;2024-03-07T10:15:05;27.20;44.60
11454;DHT22;5783;55.174;61.310;2024-03-07T10:17:36;26.80;45.20
11454;DHT22;5783;55.174;61.310;2024-03-07T10:20:07;27.00;44.60
11454;DHT22;5783;55.174;61.310;2024-03-07T10:25:05;27.20;15.50
11454;DHT22;5783;55.174;61.310;2024-03-07T10:27:36;27.10;43.10
11454;DHT22;5783;55.174;61.310;2024-03-07T10:30:07;26.70;43.00
11454;DHT22;5783;55.174;61.310;2024-03-07T10:32:38;27.00;16.30
11454;DHT22;5783;55.174;61.310;2024-03-07T10:35:08;27.00;16.60
11454;DHT22;5783;55.174;61.310;2024-03-07T10:37:40;26.90;43.30
11454;DHT22;5783;55.174;61.310;2024-03-07T10:40:28;27.00;16.60
11454;DHT22;5783;55.174;61.310;2024-03-07T10:42:58;27.00;16.40
11454;DHT22;5783;55.174;61.310;2024-03-07T10:45:49;26.90;16.10
11454;DHT22;5783;55.174;61.310;2024-03-07T10:48:39;27.30;46.90
11454;DHT22;5783;55.174;61.310;2024-03-07T10:54:39;27.20;47.00
11454;DHT22;5783;55.174;61.310;2024-03-07T10:57:30;26.90;16.80
11454;DHT22;5783;55.174;61.310;2024-03-07T11:00:01;26.60;51.50
11454;DHT22;5783;55.174;61.310;2024-03-07T11:02:51;27.30;55.80
11454;DHT22;5783;55.174;61.310;2024-03-07T11:05:58;27.00;26.10
11454;DHT22;5783;55.174;61.310;2024-03-07T11:08:14;27.10;25.80
11454;DHT22;5783;55.174;61.310;2024-03-07T11:10:45;27.00;51.90
11454;DHT22;5783;55.174;61.310;2024-03-07T11:13:17;26.50;45.50
11454;DHT22;5783;55.174;61.310;2024-03-07T11:15:49;27.00;22.20
11454;DHT22;5783;55.174;61.310;2024-03-07T11:18:20;27.30;52.70
11454;DHT22;5783;55.174;61.310;2024-03-07T11:20:50;27.00;26.40
11454;DHT22;5783;55.174;61.310;2024-03-07T11:23:40;26.90;26.10
11454;DHT22;5783;55.174;61.310;2024-03-07T11:26:11;27.20;46.00
11454;DHT22;5783;55.174;61.310;2024-03-07T11:28:42;26.80;25.60
11454;DHT22;5783;55.174;61.310;2024-03-07T11:31:14;26.80;27.00
11454;DHT22;5783;55.174;61.310;2024-03-07T11:34:11;26.90;28.40
11454;DHT22;5783;55.174;61.310;2024-03-07T11:36:41;26.90;27.10
11454;DHT22;5783;55.174;61.310;2024-03-07T11:38:49;26.90;28.30
11454;DHT22;5783;55.174;61.310;2024-03-07T11:41:38;26.90;28.30
11454;DHT22;5783;55.174;61.310;2024-03-07T11:46:38;26.90;37.40
11454;DHT22;5783;55.174;61.310;2024-03-07T11:49:08;26.90;36.30
11454;DHT22;5783;55.174;61.310;2024-03-07T11:51:39;26.90;46.70
11454;DHT22;5783;55.174;61.310;2024-03-07T11:59:27;27.00;41.60
11454;DHT22;5783;55.174;61.310;2024-03-07T12:01:57;27.10;39.60
11454;DHT22;5783;55.174;61.310;2024-03-07T12:07:00;27.20;42.20
11454;DHT22;5783;55.174;61.310;2024-03-07T12:09:31;27.10;44.20
11454;DHT22;5783;55.174;61.310;2024-03-07T12:14:31;27.00;38.30
11454;DHT22;5783;55.174;61.310;2024-03-07T12:17:02;27.00;37.10
11454;DHT22;5783;55.174;61.310;2024-03-07T12:22:02;28.00;39.20
11454;DHT22;5783;55.174;61.310;2024-03-07T12:39:51;27.30;39.00
11454;DHT22;5783;55.174;61.310;2024-03-07T12:42:22;27.10;39.30
11454;DHT22;5783;55.174;61.310;2024-03-07T12:44:52;27.10;38.60
11454;DHT22;5783;55.174;61.310;2024-03-07T12:49:54;27.10;39.10
11454;DHT22;5783;55.174;61.310;2024-03-07T12:52:24;27.10;39.30
11454;DHT22;5783;55.174;61.310;2024-03-07T12:54:56;27.30;41.20
11454;DHT22;5783;55.174;61.310;2024-03-07T12:57:25;27.40;46.40
11454;DHT22;5783;55.174;61.310;2024-03-07T12:59:57;28.10;38.90
11454;DHT22;5783;55.174;61.310;2024-03-07T13:02:28;27.10;39.00
11454;DHT22;5783;55.174;61.310;2024-03-07T13:04:59;25.80;37.00
11454;DHT22;5783;55.174;61.310;2024-03-07T13:07:31;28.30;40.70
11454;DHT22;5783;55.174;61.310;2024-03-07T13:10:00;27.10;40.60
11454;DHT22;5783;55.174;61.310;2024-03-07T13:12:30;27.00;44.40
11454;DHT22;5783;55.174;61.310;2024-03-07T13:15:00;27.10;39.30
11454;DHT22;5783;55.174;61.310;2024-03-07T13:17:34;28.10;39.90
11454;DHT22;5783;55.174;61.310;2024-03-07T13:20:05;27.00;41.40
11454;DHT22;5783;55.174;61.310;2024-03-07T13:22:58;27.00;42.80
11454;DHT22;5783;55.174;61.310;2024-03-07T13:25:28;27.00;40.80
11454;DHT22;5783;55.174;61.310;2024-03-07T13:30:50;26.80;45.70
11454;DHT22;5783;55.174;61.310;2024-03-07T13:33:22;26.80;47.70
11454;DHT22;5783;55.174;61.310;2024-03-07T13:35:51;26.90;51.20
11454;DHT22;5783;55.174;61.310;2024-03-07T13:40:49;26.80;36.10
11454;DHT22;5783;55.174;61.310;2024-03-07T13:43:19;26.90;34.10
11454;DHT22;5783;55.174;61.310;2024-03-07T13:48:39;27.40;32.80
11454;DHT22;5783;55.174;61.310;2024-03-07T13:51:10;26.90;30.70
11454;DHT22;5783;55.174;61.310;2024-03-07T13:53:41;26.90;30.80
11454;DHT22;5783;55.174;61.310;2024-03-07T13:56:33;26.90;31.80
11454;DHT22;5783;55.174;61.310;2024-03-07T14:05:38;26.80;37.70
11454;DHT22;5783;55.174;61.310;2024-03-07T14:31:15;26.40;12.90
11454;DHT22;5783;55.174;61.310;2024-03-07T14:36:56;26.60;14.20
11454;DHT22;5783;55.174;61.310;2024-03-07T14:39:24;26.70;13.10
11454;DHT22;5783;55.174;61.310;2024-03-07T14:42:14;26.80;13.80
11454;DHT22;5783;55.174;61.310;2024-03-07T14:44:44;26.70;33.60
11454;DHT22;5783;55.174;61.310;2024-03-07T14:47:17;26.80;13.90
11454;DHT22;5783;55.174;61.310;2024-03-07T14:49:46;26.80;13.70
11454;DHT22;5783;55.174;61.310;2024-03-07T14:52:35;26.90;13.10
11454;DHT22;5783;55.174;61.310;2024-03-07T14:55:24;26.70;12.90
11454;DHT22;5783;55.174;61.310;2024-03-07T14:57:53;26.80;13.60
11454;DHT22;5783;55.174;61.310;2024-03-07T15:00:23;26.80;13.80
11454;DHT22;5783;55.174;61.310;2024-03-07T15:03:13;27.20;37.40
11454;DHT22;5783;55.174;61.310;2024-03-07T15:05:46;26.90;14.20
11454;DHT22;5783;55.174;61.310;2024-03-07T15:08:15;26.90;14.30
11454;DHT22;5783;55.174;61.310;2024-03-07T15:13:17;26.90;14.00
11454;DHT22;5783;55.174;61.310;2024-03-07T15:15:46;26.90;14.60
11454;DHT22;5783;55.174;61.310;2024-03-07T15:18:15;26.60;38.30
11454;DHT22;5783;55.174;61.310;2024-03-07T15:20:44;27.00;14.20
11454;DHT22;5783;55.174;61.310;2024-03-07T15:23:13;27.00;14.90
11454;DHT22;5783;55.174;61.310;2024-03-07T15:25:42;26.90;46.10
11454;DHT22;5783;55.174;61.310;2024-03-07T15:28:11;27.10;14.20
11454;DHT22;5783;55.174;61.310;2024-03-07T15:30:40;27.10;15.40
11454;DHT22;5783;55.174;61.310;2024-03-07T15:33:10;26.80;40.20
11454;DHT22;5783;55.174;61.310;2024-03-07T15:35:40;27.20;14.30
11454;DHT22;5783;55.174;61.310;2024-03-07T15:38:09;27.20;14.30
11454;DHT22;5783;55.174;61.310;2024-03-07T15:40:39;27.30;41.40
11454;DHT22;5783;55.174;61.310;2024-03-07T15:43:09;27.20;14.50
11454;DHT22;5783;55.174;61.310;2024-03-07T15:45:39;27.70;37.60
11454;DHT22;5783;55.174;61.310;2024-03-07T15:48:08;27.20;14.50
11454;DHT22;5783;55.174;61.310;2024-03-07T15:50:38;27.20;14.50
11454;DHT22;5783;55.174;61.310;2024-03-07T15:53:09;27.20;14.50
11454;DHT22;5783;55.174;61.310;2024-03-07T15:55:38;26.80;28.10
11454;DHT22;5783;55.174;61.310;2024-03-07T15:58:07;27.70;39.70
11454;DHT22;5783;55.174;61.310;2024-03-07T16:00:36;27.20;18.20
11454;DHT22;5783;55.174;61.310;2024-03-07T16:03:07;27.30;14.60
11454;DHT22;5783;55.174;61.310;2024-03-07T16:05:56;27.60;42.80
11454;DHT22;5783;55.174;61.310;2024-03-07T16:08:25;27.50;45.40
11454;DHT22;5783;55.174;61.310;2024-03-07T16:11:18;27.30;14.60
11454;DHT22;5783;55.174;61.310;2024-03-07T16:14:37;27.30;14.50
11454;DHT22;5783;55.174;61.310;2024-03-07T16:19:25;27.20;51.00
11454;DHT22;5783;55.174;61.310;2024-03-07T16:21:55;26.90;47.70
11454;DHT22;5783;55.174;61.310;2024-03-07T16:24:24;27.40;18.40
11454;DHT22;5783;55.174;61.310;2024-03-07T16:26:53;27.10;46.20
11454;DHT22;5783;55.174;61.310;2024-03-07T16:29:22;27.70;44.30
11454;DHT22;5783;55.174;61.310;2024-03-07T16:31:51;27.80;44.10
11454;DHT22;5783;55.174;61.310;2024-03-07T16:34:20;27.80;39.10
11454;DHT22;5783;55.174;61.310;2024-03-07T16:36:49;27.90;42.40
11454;DHT22;5783;55.174;61.310;2024-03-07T16:39:38;27.40;41.60
11454;DHT22;5783;55.174;61.310;2024-03-07T16:42:27;27.00;49.50
11454;DHT22;5783;55.174;61.310;2024-03-07T16:44:56;27.50;14.50
11454;DHT22;5783;55.174;61.310;2024-03-07T16:47:25;27.30;46.50
11454;DHT22;5783;55.174;61.310;2024-03-07T16:49:53;27.30;45.10
11454;DHT22;5783;55.174;61.310;2024-03-07T16:52:22;27.80;45.80
11454;DHT22;5783;55.174;61.310;2024-03-07T16:54:51;27.50;45.10
11454;DHT22;5783;55.174;61.310;2024-03-07T16:57:20;27.90;45.10
11454;DHT22;5783;55.174;61.310;2024-03-07T17:00:11;27.50;46.80
11454;DHT22;5783;55.174;61.310;2024-03-07T17:03:00;27.40;49.10
11454;DHT22;5783;55.174;61.310;2024-03-07T17:05:32;27.80;45.00
11454;DHT22;5783;55.174;61.310;2024-03-07T17:08:01;27.60;14.40
11454;DHT22;5783;55.174;61.310;2024-03-07T17:10:32;27.30;33.70
11454;DHT22;5783;55.174;61.310;2024-03-07T17:13:02;27.60;14.30
11454;DHT22;5783;55.174;61.310;2024-03-07T17:15:50;28.10;37.00
11454;DHT22;5783;55.174;61.310;2024-03-07T17:18:20;27.70;14.30
11454;DHT22;5783;55.174;61.310;2024-03-07T17:20:49;28.00;33.80
11454;DHT22;5783;55.174;61.310;2024-03-07T17:23:18;27.70;14.30
11454;DHT22;5783;55.174;61.310;2024-03-07T17:25:48;27.40;32.60
11454;DHT22;5783;55.174;61.310;2024-03-07T17:28:18;27.70;14.30
11454;DHT22;5783;55.174;61.310;2024-03-07T17:30:47;27.20;32.10
11454;DHT22;5783;55.174;61.310;2024-03-07T17:33:16;27.70;14.30
11454;DHT22;5783;55.174;61.310;2024-03-07T17:35:44;27.60;14.30
11454;DHT22;5783;55.174;61.310;2024-03-07T17:38:12;28.00;30.70
11454;DHT22;5783;55.174;61.310;2024-03-07T17:40:40;28.00;30.90
11454;DHT22;5783;55.174;61.310;2024-03-07T17:43:08;28.00;30.10
11454;DHT22;5783;55.174;61.310;2024-03-07T17:45:37;27.60;14.40
11454;DHT22;5783;55.174;61.310;2024-03-07T17:48:05;27.60;29.50
11454;DHT22;5783;55.174;61.310;2024-03-07T17:50:35;27.10;30.30
11454;DHT22;5783;55.174;61.310;2024-03-07T17:53:04;27.50;30.20
11454;DHT22;5783;55.174;61.310;2024-03-07T17:55:52;27.60;34.90
11454;DHT22;5783;55.174;61.310;2024-03-07T17:58:22;27.20;31.60
11454;DHT22;5783;55.174;61.310;2024-03-07T18:00:50;28.20;31.80
11454;DHT22;5783;55.174;61.310;2024-03-07T18:03:19;28.00;30.10
11454;DHT22;5783;55.174;61.310;2024-03-07T18:05:48;27.60;31.40